Time;durP1;ratioP1;P1;durP2;ratioP2;P2;SDS_P1;SDS_P2;PMS_P1;PMS_P2;Temp;Humidity;BMP_temperature;BMP_pressure;BME280_temperature;BME280_humidity;BME280_pressure;Samples;Min_cycle;Max_cycle;Signal;HPM_P1;HPM_P2
2023/08/14 00:04:10;;;;;;;3.78;2.03;;;;;;;20.66;100.00;97814.37;18240665;32;20043;-58
2023/08/14 00:14:13;;;;;;;4.00;2.15;;;;;;;20.58;100.00;97818.78;18239891;32;20086;-58
2023/08/14 00:24:16;;;;;;;3.80;2.47;;;;;;;20.55;100.00;97813.16;18238447;32;20054;-57
2023/08/14 00:34:20;;;;;;;4.87;2.30;;;;;;;20.47;100.00;97812.06;18239006;32;20078;-57
2023/08/14 00:55:34;;;;;;;4.62;2.60;;;;;;;20.29;100.00;97779.19;18238666;32;20351;-57
2023/08/14 01:05:38;;;;;;;3.35;2.00;;;;;;;20.22;100.00;97750.66;18236508;32;20489;-58
2023/08/14 01:15:50;;;;;;;8.43;2.25;;;;;;;20.05;100.00;97755.13;18237225;32;20087;-58
2023/08/14 01:25:54;;;;;;;3.12;1.83;;;;;;;20.08;100.00;97734.44;18236932;32;20067;-58
2023/08/14 01:36:13;;;;;;;2.75;1.62;;;;;;;19.98;100.00;97761.13;18236399;32;20396;-58
2023/08/14 01:46:17;;;;;;;4.37;2.37;;;;;;;20.00;100.00;97782.75;18235252;32;20072;-57
2023/08/14 01:56:20;;;;;;;4.07;2.72;;;;;;;20.03;100.00;97760.13;18235974;32;20054;-57
2023/08/14 02:06:24;;;;;;;3.60;2.35;;;;;;;20.02;100.00;97763.19;18235532;32;20055;-57
2023/08/14 02:16:26;;;;;;;4.65;2.65;;;;;;;19.99;100.00;97759.16;18234558;32;20058;-58
2023/08/14 02:26:29;;;;;;;2.67;2.20;;;;;;;19.93;100.00;97758.53;18234059;32;20386;-58
2023/08/14 02:36:32;;;;;;;4.57;2.90;;;;;;;19.94;100.00;97759.38;18232695;32;20167;-57
2023/08/14 02:46:35;;;;;;;2.53;1.98;;;;;;;19.89;100.00;97757.59;18233056;32;20062;-58
2023/08/14 02:56:37;;;;;;;3.47;2.30;;;;;;;19.81;100.00;97758.44;18231958;32;20050;-58
2023/08/14 03:06:40;;;;;;;2.97;1.70;;;;;;;19.72;100.00;97765.84;18231096;32;20098;-58
2023/08/14 03:16:42;;;;;;;3.23;1.77;;;;;;;19.64;100.00;97764.78;18232121;32;20062;-58
2023/08/14 03:26:45;;;;;;;3.47;2.07;;;;;;;19.53;100.00;97760.75;18231613;32;20143;-58
2023/08/14 03:36:48;;;;;;;1.90;1.70;;;;;;;19.47;100.00;97738.19;18231422;32;20055;-58
2023/08/14 03:46:51;;;;;;;2.72;2.47;;;;;;;19.44;100.00;97738.84;18230849;32;20063;-58
2023/08/14 03:56:54;;;;;;;5.80;3.17;;;;;;;19.43;100.00;97727.09;18230201;32;20050;-58
2023/08/14 04:06:57;;;;;;;5.75;3.17;;;;;;;19.37;100.00;97722.09;18233563;32;20366;-58
2023/08/14 04:17:00;;;;;;;3.95;3.00;;;;;;;19.37;100.00;97724.84;18238945;32;20046;-58
2023/08/14 04:27:03;;;;;;;4.80;3.70;;;;;;;19.40;100.00;97719.47;18238192;32;20399;-58
2023/08/14 04:37:06;;;;;;;4.35;3.95;;;;;;;19.45;100.00;97711.09;18239419;32;20054;-58
2023/08/14 04:47:09;;;;;;;4.97;3.77;;;;;;;19.51;100.00;97695.25;18237506;32;20362;-58
2023/08/14 04:57:11;;;;;;;6.53;5.60;;;;;;;19.57;100.00;97688.47;18238173;32;20103;-58
2023/08/14 05:07:15;;;;;;;8.23;5.40;;;;;;;19.59;100.00;97675.22;18236554;32;20101;-58
2023/08/14 05:17:17;;;;;;;;;;;;;;;19.58;100.00;97683.78;18236911;32;20054;-58
2023/08/14 05:27:20;;;;;;;5.72;4.97;;;;;;;19.68;100.00;97691.66;18235912;32;19954;-58
2023/08/14 05:37:23;;;;;;;7.37;6.00;;;;;;;19.77;100.00;97680.62;18234878;32;20051;-58
2023/08/14 05:47:26;;;;;;;7.35;5.50;;;;;;;19.93;100.00;97676.22;18236484;32;20098;-58
2023/08/14 05:57:30;;;;;;;6.72;5.47;;;;;;;20.09;100.00;97664.66;18234411;32;20061;-58
2023/08/14 06:07:33;;;;;;;5.30;4.45;;;;;;;20.22;100.00;97671.06;18234031;32;20054;-58
2023/08/14 06:17:36;;;;;;;5.65;5.03;;;;;;;20.39;100.00;97659.94;18233824;32;20121;-58
2023/08/14 06:27:40;;;;;;;4.78;4.28;;;;;;;20.61;100.00;97658.78;18232598;32;20058;-58
2023/08/14 06:37:43;;;;;;;3.80;3.45;;;;;;;20.88;100.00;97656.62;18233373;32;20058;-57
2023/08/14 06:47:47;;;;;;;3.05;2.72;;;;;;;21.15;100.00;97654.41;18233325;32;20382;-58
2023/08/14 06:57:50;;;;;;;;;;;;;;;21.41;100.00;97656.88;18233298;32;20069;-58
2023/08/14 07:07:53;;;;;;;3.60;3.07;;;;;;;21.70;100.00;97665.28;18231542;32;20298;-58
2023/08/14 07:17:56;;;;;;;3.33;2.67;;;;;;;21.97;100.00;97683.06;18231270;32;20055;-58
2023/08/14 07:28:00;;;;;;;4.07;3.20;;;;;;;22.31;100.00;97714.81;18217598;32;20089;-58
2023/08/14 07:38:04;;;;;;;4.15;3.75;;;;;;;22.61;100.00;97719.25;18231148;32;20081;-58
2023/08/14 07:48:07;;;;;;;4.47;3.58;;;;;;;22.90;100.00;97709.03;18241239;32;20067;-58
2023/08/14 07:58:41;;;;;;;;;;;;;;;;;;;;;
2023/08/14 08:08:58;;;;;;;5.78;4.43;;;;;;;23.49;100.00;97716.59;18240085;32;20051;-58
2023/08/14 08:19:06;;;;;;;5.50;4.30;;;;;;;23.85;100.00;97723.03;18226444;32;20054;-58
2023/08/14 08:29:11;;;;;;;4.30;3.78;;;;;;;24.20;100.00;97727.00;18238613;32;20081;-58
2023/08/14 08:39:14;;;;;;;6.90;5.15;;;;;;;24.53;100.00;97740.41;18236242;32;20070;-58
2023/08/14 08:49:21;;;;;;;5.87;5.00;;;;;;;25.20;100.00;97756.06;18238416;32;20062;-58
2023/08/14 08:59:29;;;;;;;5.95;4.37;;;;;;;25.52;100.00;97768.94;18237186;32;20054;-58
2023/08/14 09:09:35;;;;;;;4.65;4.03;;;;;;;25.73;100.00;97767.75;18237607;32;20055;-58
2023/08/14 09:19:40;;;;;;;4.55;4.12;;;;;;;25.92;100.00;97806.44;18236192;32;20095;-58
2023/08/14 09:30:17;;;;;;;5.18;4.65;;;;;;;26.01;100.00;97804.25;18236842;32;20051;-58
2023/08/14 09:40:47;;;;;;;5.03;4.53;;;;;;;26.06;100.00;97821.75;18235914;32;20063;-58
2023/08/14 09:50:54;;;;;;;3.58;3.10;;;;;;;25.94;100.00;97822.72;18236159;32;20102;-58
2023/08/14 10:01:39;;;;;;;;;;;;;;;;;;;;;
2023/08/14 10:12:21;;;;;;;3.92;2.95;;;;;;;25.85;100.00;97832.06;18235013;32;20054;-58
2023/08/14 10:22:48;;;;;;;5.97;3.40;;;;;;;25.94;100.00;97819.94;18234252;32;20106;-58
2023/08/14 10:32:54;;;;;;;8.30;3.15;;;;;;;26.42;100.00;97808.47;18233050;32;20084;-58
2023/08/14 10:43:00;;;;;;;4.35;3.30;;;;;;;26.57;100.00;97807.53;18219552;32;20062;-58
2023/08/14 10:53:05;;;;;;;6.28;2.90;;;;;;;26.96;100.00;97807.31;18233315;32;20450;-58
2023/08/14 11:03:11;;;;;;;4.40;3.58;;;;;;;27.34;100.00;97793.50;18231731;32;20055;-58
2023/08/14 11:13:48;;;;;;;;;;;;;;;;;;;;;
2023/08/14 11:24:16;;;;;;;3.67;3.30;;;;;;;27.90;100.00;97783.41;18231815;32;20062;-58
2023/08/14 11:34:21;;;;;;;6.10;3.40;;;;;;;28.06;100.00;97766.50;18229927;32;20062;-58
2023/08/14 11:44:28;;;;;;;5.30;3.87;;;;;;;28.62;100.00;97747.81;18230617;32;20039;-58
2023/08/14 11:56:04;;;;;;;3.22;2.80;;;;;;;29.14;100.00;97727.41;17973285;32;20135;-58
2023/08/14 12:07:19;;;;;;;;;;;;;;;;;;;;;
2023/08/14 12:17:49;;;;;;;5.68;3.85;;;;;;;28.90;100.00;97685.97;17971933;32;20075;-57
2023/08/14 12:27:52;;;;;;;4.93;3.50;;;;;;;29.15;100.00;97692.78;18090429;32;20062;-58
2023/08/14 12:37:56;;;;;;;4.12;3.72;;;;;;;28.91;100.00;97701.47;18239324;32;20073;-58
2023/08/14 12:48:00;;;;;;;5.37;3.72;;;;;;;28.43;100.00;97664.69;18238310;32;20069;-58
2023/08/14 12:58:04;;;;;;;4.07;3.20;;;;;;;28.52;100.00;97673.47;18237143;32;20050;-58
2023/08/14 13:08:09;;;;;;;4.12;3.70;;;;;;;28.63;100.00;97671.56;18237725;32;20106;-58
2023/08/14 13:18:14;;;;;;;5.93;4.37;;;;;;;29.09;100.00;97664.56;18236367;32;20088;-58
2023/08/14 13:28:19;;;;;;;8.07;4.20;;;;;;;29.60;100.00;97654.28;18236840;32;20066;-58
2023/08/14 13:38:29;;;;;;;5.82;4.32;;;;;;;30.56;100.00;97657.38;18235668;32;20106;-57
2023/08/14 13:48:37;;;;;;;5.15;4.30;;;;;;;31.02;100.00;97667.56;18235204;32;20400;-58
2023/08/14 13:58:41;;;;;;;5.32;4.10;;;;;;;30.85;100.00;97662.84;18235516;32;20516;-58
2023/08/14 14:08:44;;;;;;;4.00;3.62;;;;;;;30.98;92.00;97641.62;18235539;32;20106;-58
2023/08/14 14:18:48;;;;;;;4.78;4.18;;;;;;;30.95;100.00;97636.88;18235225;32;20077;-58
2023/08/14 14:28:52;;;;;;;4.40;3.72;;;;;;;30.87;100.00;97646.50;18234397;32;20058;-58
2023/08/14 14:38:56;;;;;;;4.10;3.70;;;;;;;30.82;100.00;97627.38;18233460;32;20051;-58
2023/08/14 14:48:59;;;;;;;5.12;3.95;;;;;;;30.95;99.44;97622.91;18232373;32;20070;-58
2023/08/14 14:59:05;;;;;;;5.15;4.07;;;;;;;30.92;100.00;97607.00;18231964;32;20051;-58
2023/08/14 15:09:09;;;;;;;5.87;3.65;;;;;;;30.91;96.18;97597.81;18232508;32;20070;-58
2023/08/14 15:19:15;;;;;;;5.65;4.18;;;;;;;31.06;89.66;97590.16;18232144;32;20400;-58
2023/08/14 15:29:19;;;;;;;4.32;3.92;;;;;;;31.14;77.36;97588.12;18231559;32;20063;-58
2023/08/14 15:39:30;;;;;;;6.62;4.57;;;;;;;30.87;81.80;97579.50;18231306;32;20059;-58
2023/08/14 15:49:35;;;;;;;8.63;4.35;;;;;;;30.70;88.83;97568.03;18230528;32;20336;-58
2023/08/14 15:59:38;;;;;;;5.10;4.60;;;;;;;30.87;85.77;97569.13;18229363;32;20513;-58
2023/08/14 16:09:43;;;;;;;5.40;4.65;;;;;;;30.38;79.70;97562.56;18239324;32;20054;-58
2023/08/14 16:19:46;;;;;;;5.18;4.45;;;;;;;29.92;81.54;97542.81;18239930;32;20403;-58
2023/08/14 16:29:49;;;;;;;6.05;4.30;;;;;;;29.62;81.87;97548.84;18225802;32;20070;-57
2023/08/14 16:39:52;;;;;;;4.85;4.45;;;;;;;29.40;82.91;97557.22;18237622;32;20058;-57
2023/08/14 16:49:55;;;;;;;5.05;4.18;;;;;;;29.24;87.22;97551.22;18237316;32;20111;-58
2023/08/14 16:59:58;;;;;;;4.75;4.25;;;;;;;29.23;98.60;97556.00;18238450;32;20129;-57
2023/08/14 17:10:01;;;;;;;4.90;4.45;;;;;;;28.89;99.27;97553.59;18237561;32;20385;-57
2023/08/14 17:20:10;;;;;;;5.03;4.12;;;;;;;28.44;100.00;97557.81;18236388;32;20390;-57
2023/08/14 17:30:13;;;;;;;4.97;4.50;;;;;;;28.01;100.00;97559.22;18237084;32;20080;-57
2023/08/14 17:40:16;;;;;;;6.32;4.68;;;;;;;27.78;100.00;97551.12;18235036;32;20050;-57
2023/08/14 17:50:19;;;;;;;7.45;5.00;;;;;;;27.41;100.00;97551.25;18236027;32;20075;-57
2023/08/14 18:00:22;;;;;;;5.78;5.00;;;;;;;27.07;100.00;97557.72;18235539;32;20080;-57
2023/08/14 18:10:25;;;;;;;6.37;5.68;;;;;;;26.74;100.00;97562.16;18234298;32;20098;-58
2023/08/14 18:20:28;;;;;;;16.25;13.20;;;;;;;26.41;100.00;97576.78;18234908;32;20438;-57
2023/08/14 18:30:31;;;;;;;19.37;15.13;;;;;;;26.01;100.00;97576.25;18233873;32;20469;-57
2023/08/14 18:40:34;;;;;;;11.90;9.02;;;;;;;25.62;100.00;97582.03;18233962;32;20054;-57
2023/08/14 18:50:38;;;;;;;14.60;7.32;;;;;;;25.26;100.00;97582.22;18233242;32;20079;-57
2023/08/14 19:00:42;;;;;;;9.82;6.57;;;;;;;24.92;100.00;97572.94;18232906;32;20103;-57
2023/08/14 19:10:44;;;;;;;5.70;5.00;;;;;;;24.61;100.00;97594.91;18284022;32;20371;-57
2023/08/14 19:20:48;;;;;;;6.15;4.87;;;;;;;24.33;100.00;97597.84;18230734;32;20073;-57
2023/08/14 19:30:51;;;;;;;7.07;5.50;;;;;;;24.14;100.00;97623.50;18205426;32;20054;-57
2023/08/14 19:40:59;;;;;;;6.50;5.72;;;;;;;23.99;100.00;97645.25;18224344;32;20058;-57
2023/08/14 19:51:02;;;;;;;8.63;5.70;;;;;;;23.82;100.00;97656.69;18228415;32;20351;-57
2023/08/14 20:01:05;;;;;;;7.90;5.50;;;;;;;23.64;100.00;97667.28;18227647;32;20464;-57
2023/08/14 20:11:09;;;;;;;13.62;6.45;;;;;;;23.44;100.00;97686.50;18239555;32;20055;-57
2023/08/14 20:21:11;;;;;;;6.00;5.40;;;;;;;23.22;100.00;97701.69;18239968;32;20066;-57
2023/08/14 20:31:21;;;;;;;6.43;5.30;;;;;;;23.05;100.00;97701.97;18238530;32;20059;-57
2023/08/14 20:41:25;;;;;;;8.15;5.45;;;;;;;22.96;100.00;97700.19;18238172;32;20093;-57
2023/08/14 20:51:27;;;;;;;6.20;5.35;;;;;;;22.94;100.00;97708.00;18237569;32;20382;-57
2023/08/14 21:01:30;;;;;;;8.02;5.10;;;;;;;22.90;100.00;97717.31;18238294;32;20065;-57
2023/08/14 21:11:33;;;;;;;6.18;5.50;;;;;;;22.83;100.00;97717.91;18237593;32;20439;-57
2023/08/14 21:21:36;;;;;;;8.25;5.22;;;;;;;22.73;100.00;97729.44;18236103;32;20111;-57
2023/08/14 21:31:38;;;;;;;6.25;4.93;;;;;;;22.67;100.00;97745.44;18237010;32;20070;-57
2023/08/14 21:41:41;;;;;;;4.85;4.45;;;;;;;22.55;100.00;97737.97;18236355;32;20083;-57
2023/08/14 21:51:44;;;;;;;;;;;;;;;22.41;100.00;97738.34;18236469;32;20472;-57
2023/08/14 22:01:47;;;;;;;4.72;4.32;;;;;;;22.26;100.00;97750.06;18236037;32;19993;-57
2023/08/14 22:11:50;;;;;;;6.28;4.60;;;;;;;22.16;100.00;97740.31;18234068;32;20051;-57
2023/08/14 22:21:53;;;;;;;5.62;4.28;;;;;;;22.07;100.00;97756.12;18234835;32;20051;-57
2023/08/14 22:31:55;;;;;;;;;;;;;;;21.97;100.00;97730.66;18234999;32;20077;-57
2023/08/14 22:41:58;;;;;;;6.15;4.45;;;;;;;21.91;100.00;97734.81;18233995;32;19957;-57
2023/08/14 22:52:01;;;;;;;7.62;4.65;;;;;;;21.86;100.00;97740.53;18232204;32;20062;-57
2023/08/14 23:02:04;;;;;;;5.40;4.70;;;;;;;21.81;100.00;97724.22;18231808;32;20352;-57
2023/08/14 23:12:07;;;;;;;8.02;4.80;;;;;;;21.74;100.00;97724.78;18230490;32;20054;-57
2023/08/14 23:22:09;;;;;;;5.63;4.97;;;;;;;21.66;100.00;97729.25;18232032;32;20081;-57
2023/08/14 23:32:12;;;;;;;8.20;4.68;;;;;;;21.60;100.00;97733.38;18230268;32;20084;-57
2023/08/14 23:42:14;;;;;;;7.00;4.40;;;;;;;21.50;100.00;97723.59;18229867;32;20490;-57
2023/08/14 23:52:16;;;;;;;7.73;4.40;;;;;;;21.29;100.00;97718.12;18230773;32;20066;-57
